createdAt,value
2018-07-13T00:01:17.095Z,70.60
2018-07-13T00:03:44.578Z,70.50
2018-07-13T00:06:11.740Z,70.60
2018-07-13T00:08:38.859Z,70.80
2018-07-13T00:11:05.957Z,72.10
2018-07-13T00:13:37.736Z,71.20
2018-07-13T00:16:04.904Z,71.10
2018-07-13T00:18:32.223Z,71.30
2018-07-13T00:20:59.283Z,72.00
2018-07-13T00:23:26.981Z,71.90
2018-07-13T00:25:54.067Z,72.30
2018-07-13T00:28:21.173Z,72.40
2018-07-13T00:30:48.647Z,72.80
2018-07-13T00:35:49.528Z,71.70
2018-07-13T00:38:16.672Z,72.20
2018-07-13T00:40:43.782Z,73.50
2018-07-13T00:43:10.801Z,73.20
2018-07-13T00:45:38.005Z,73.40
2018-07-13T00:48:04.947Z,73.70
2018-07-13T00:50:31.892Z,73.40
2018-07-13T00:52:58.862Z,73.10
2018-07-13T00:55:25.781Z,73.20
2018-07-13T00:57:52.729Z,73.20
2018-07-13T01:00:28.193Z,73.10
2018-07-13T01:02:55.881Z,72.90
2018-07-13T01:05:22.853Z,74.00
2018-07-13T01:07:49.808Z,73.00
2018-07-13T01:10:16.880Z,73.20
2018-07-13T01:12:44.052Z,73.50
2018-07-13T01:15:11.005Z,73.90
2018-07-13T01:17:37.969Z,73.40
2018-07-13T01:20:04.933Z,73.60
2018-07-13T01:22:32.358Z,73.80
2018-07-13T01:27:32.974Z,74.10
2018-07-13T01:29:59.941Z,73.70
2018-07-13T01:32:26.969Z,73.50
2018-07-13T01:34:53.977Z,73.90
2018-07-13T01:37:20.900Z,74.40
2018-07-13T01:39:48.133Z,74.60
2018-07-13T01:42:15.053Z,74.50
2018-07-13T01:44:41.996Z,74.30
2018-07-13T01:47:08.969Z,74.20
2018-07-13T01:49:35.912Z,74.70
2018-07-13T01:54:29.735Z,73.80
2018-07-13T01:56:56.640Z,74.40
2018-07-13T01:59:23.592Z,74.20
2018-07-13T02:01:50.541Z,74.30
2018-07-13T02:04:17.472Z,74.50
2018-07-13T02:06:44.406Z,74.30
2018-07-13T02:09:11.349Z,74.20
2018-07-13T02:11:38.264Z,74.10
2018-07-13T02:14:05.276Z,74.30
2018-07-13T02:16:32.245Z,74.30
2018-07-13T02:19:00.164Z,74.40
2018-07-13T02:23:53.996Z,74.50
2018-07-13T02:26:20.953Z,74.80
2018-07-13T02:28:47.970Z,74.50
2018-07-13T02:31:14.881Z,74.20
2018-07-13T02:33:41.887Z,74.70
2018-07-13T02:36:09.724Z,74.70
2018-07-13T02:38:36.654Z,74.80
2018-07-13T02:41:03.589Z,74.70
2018-07-13T02:43:31.665Z,74.40
2018-07-13T02:48:25.456Z,74.70
2018-07-13T02:50:52.416Z,74.50
2018-07-13T02:53:19.348Z,74.40
2018-07-13T02:55:46.298Z,74.50
2018-07-13T02:58:13.320Z,74.70
2018-07-13T03:00:40.281Z,74.50
2018-07-13T03:03:08.505Z,74.10
2018-07-13T03:05:35.451Z,74.80
2018-07-13T03:08:02.361Z,75.10
2018-07-13T03:10:29.288Z,75.20
2018-07-13T03:12:56.205Z,75.20
2018-07-13T03:15:23.164Z,75.10
2018-07-13T03:17:50.100Z,74.70
2018-07-13T03:20:17.041Z,75.50
2018-07-13T03:22:44.150Z,75.80
2018-07-13T03:25:11.137Z,76.40
2018-07-13T03:30:12.747Z,76.80
2018-07-13T03:32:40.167Z,76.30
2018-07-13T03:35:07.423Z,76.50
2018-07-13T03:37:34.353Z,76.50
2018-07-13T03:40:01.299Z,76.40
2018-07-13T03:42:28.228Z,76.80
2018-07-13T03:44:55.454Z,77.70
2018-07-13T03:47:22.383Z,76.90
2018-07-13T03:49:49.315Z,77.00
2018-07-13T03:52:17.333Z,77.30
2018-07-13T03:54:44.298Z,76.70
2018-07-13T03:57:11.364Z,77.00
2018-07-13T03:59:38.293Z,77.20
2018-07-13T04:02:05.244Z,77.50
2018-07-13T04:04:32.205Z,77.80
2018-07-13T04:06:59.181Z,77.00
2018-07-13T04:09:26.111Z,77.10
2018-07-13T04:11:53.038Z,77.60
2018-07-13T04:14:20.064Z,78.10
2018-07-13T04:16:47.019Z,77.90
2018-07-13T04:19:13.953Z,77.10
2018-07-13T04:21:40.952Z,77.20
2018-07-13T04:24:07.972Z,77.60
2018-07-13T04:26:34.965Z,76.50
2018-07-13T04:29:01.938Z,77.00
2018-07-13T04:31:28.947Z,77.50
2018-07-13T04:33:55.889Z,77.30
2018-07-13T04:36:22.832Z,77.30
2018-07-13T04:38:49.798Z,77.00
2018-07-13T04:41:17.164Z,77.30
2018-07-13T04:43:44.117Z,74.80
2018-07-13T04:46:11.275Z,73.70
2018-07-13T04:48:39.027Z,73.60
2018-07-13T04:51:06.314Z,71.70
2018-07-13T04:53:33.296Z,70.20
2018-07-13T04:56:00.292Z,70.20
2018-07-13T04:58:27.289Z,70.30
2018-07-13T05:00:55.246Z,67.40
2018-07-13T05:03:22.491Z,65.50
2018-07-13T05:05:49.629Z,63.70
2018-07-13T05:08:17.267Z,62.70
2018-07-13T05:10:44.297Z,63.40
2018-07-13T05:13:11.355Z,61.60
2018-07-13T05:15:38.321Z,61.40
2018-07-13T05:18:05.308Z,62.80
2018-07-13T05:20:33.863Z,60.10
2018-07-13T05:23:00.873Z,59.20
2018-07-13T05:25:27.959Z,58.30
2018-07-13T05:27:55.788Z,57.90
2018-07-13T05:30:23.133Z,57.40
2018-07-13T05:32:50.726Z,56.40
2018-07-13T05:35:18.418Z,56.80
2018-07-13T05:37:46.087Z,56.50
2018-07-13T05:40:13.188Z,56.00
2018-07-13T05:42:40.248Z,55.40
2018-07-13T05:45:07.489Z,54.50
2018-07-13T05:47:34.461Z,54.10
2018-07-13T05:50:01.502Z,53.90
2018-07-13T05:52:29.074Z,53.20
2018-07-13T05:54:56.837Z,53.80
2018-07-13T05:57:23.825Z,53.70
2018-07-13T05:59:50.828Z,52.70
2018-07-13T06:02:17.807Z,53.00
2018-07-13T06:04:44.821Z,52.10
2018-07-13T06:07:11.813Z,50.90
2018-07-13T06:09:38.859Z,50.90
2018-07-13T06:12:06.420Z,49.80
2018-07-13T06:14:33.991Z,50.10
2018-07-13T06:17:01.029Z,50.80
2018-07-13T06:19:27.948Z,50.10
2018-07-13T06:21:54.909Z,49.10
2018-07-13T06:24:21.996Z,49.20
2018-07-13T06:26:48.875Z,49.90
2018-07-13T06:29:15.820Z,50.20
2018-07-13T06:31:42.794Z,51.60
2018-07-13T06:34:09.740Z,52.20
2018-07-13T06:36:36.732Z,51.90
2018-07-13T06:39:05.576Z,52.40
2018-07-13T06:41:32.568Z,52.70
2018-07-13T06:43:59.613Z,52.80
2018-07-13T06:46:26.583Z,52.80
2018-07-13T06:48:53.564Z,52.70
2018-07-13T06:51:20.564Z,53.30
2018-07-13T06:53:47.552Z,52.90
2018-07-13T06:56:14.572Z,52.60
2018-07-13T06:58:47.329Z,51.60
2018-07-13T07:01:14.285Z,51.50
2018-07-13T07:04:51.130Z,51.10
2018-07-13T07:07:18.661Z,51.50
2018-07-13T07:09:53.305Z,51.80
2018-07-13T07:12:54.962Z,51.30
2018-07-13T07:15:23.059Z,51.30
2018-07-13T07:17:50.507Z,50.50
2018-07-13T07:20:17.480Z,49.80
2018-07-13T07:22:45.707Z,49.10
2018-07-13T07:25:13.265Z,48.40
2018-07-13T07:27:40.254Z,49.70
2018-07-13T07:30:07.288Z,49.50
2018-07-13T07:32:34.592Z,48.50
2018-07-13T07:35:01.565Z,48.60
2018-07-13T07:37:28.544Z,49.30
2018-07-13T07:39:55.530Z,49.50
2018-07-13T07:42:22.547Z,48.90
2018-07-13T07:44:49.518Z,48.00
2018-07-13T07:47:16.570Z,48.30
2018-07-13T07:49:43.528Z,47.10
2018-07-13T07:52:10.478Z,47.90
2018-07-13T07:54:37.444Z,48.30
2018-07-13T07:57:04.472Z,49.30
2018-07-13T07:59:31.589Z,48.00
2018-07-13T08:01:58.793Z,48.40
2018-07-13T08:04:25.742Z,48.20
2018-07-13T08:06:52.941Z,47.00
2018-07-13T08:09:19.641Z,47.50
2018-07-13T08:11:46.584Z,46.80
2018-07-13T08:14:13.883Z,46.40
2018-07-13T08:16:40.592Z,47.10
2018-07-13T08:19:07.525Z,46.90
2018-07-13T08:21:36.589Z,47.40
2018-07-13T08:24:03.552Z,46.60
2018-07-13T08:26:30.545Z,45.80
2018-07-13T08:28:57.576Z,45.60
2018-07-13T08:31:24.553Z,46.30
2018-07-13T08:33:51.931Z,43.90
2018-07-13T08:36:18.886Z,43.80
2018-07-13T08:38:46.324Z,43.80
2018-07-13T08:41:13.308Z,43.30
2018-07-13T08:43:40.403Z,44.40
2018-07-13T08:46:07.390Z,44.50
2018-07-13T08:48:34.965Z,44.60
2018-07-13T08:51:01.925Z,43.60
2018-07-13T08:55:56.315Z,43.30
2018-07-13T08:58:23.368Z,43.70
2018-07-13T09:00:51.113Z,43.60
2018-07-13T09:03:18.276Z,43.20
2018-07-13T09:05:45.317Z,43.30
2018-07-13T09:08:13.295Z,42.40
2018-07-13T09:10:40.256Z,43.20
2018-07-13T09:13:07.229Z,43.20
2018-07-13T09:15:34.241Z,42.80
2018-07-13T09:18:01.583Z,42.10
2018-07-13T09:20:28.536Z,42.40
2018-07-13T09:22:55.489Z,42.80
2018-07-13T09:25:22.498Z,42.10
2018-07-13T09:27:49.466Z,43.30
2018-07-13T09:30:16.428Z,42.60
2018-07-13T09:32:43.460Z,42.00
2018-07-13T09:35:11.200Z,41.10
2018-07-13T09:37:38.165Z,41.00
2018-07-13T09:40:05.220Z,39.90
2018-07-13T09:42:32.385Z,40.70
2018-07-13T09:44:59.357Z,40.50
2018-07-13T09:47:26.336Z,39.90
2018-07-13T09:49:53.326Z,39.80
2018-07-13T09:52:20.611Z,40.20
2018-07-13T09:54:47.596Z,39.00
2018-07-13T09:57:15.494Z,40.10
2018-07-13T09:59:43.102Z,39.80
2018-07-13T10:02:10.705Z,38.80
2018-07-13T10:04:37.695Z,39.60
2018-07-13T10:07:04.967Z,38.00
2018-07-13T10:09:32.432Z,39.30
2018-07-13T10:11:59.465Z,37.90
2018-07-13T10:14:27.498Z,37.60
2018-07-13T10:16:54.472Z,37.50
2018-07-13T10:19:21.981Z,38.30
2018-07-13T10:21:49.009Z,37.80
2018-07-13T10:24:16.504Z,37.90
2018-07-13T10:26:43.486Z,38.40
2018-07-13T10:29:11.720Z,37.30
2018-07-13T10:31:38.737Z,37.00
2018-07-13T10:34:06.077Z,37.30
2018-07-13T10:36:34.946Z,37.30
2018-07-13T10:39:01.880Z,36.60
2018-07-13T10:41:28.832Z,35.90
2018-07-13T10:44:02.693Z,36.70
2018-07-13T10:46:29.950Z,37.10
2018-07-13T10:48:57.361Z,36.80
2018-07-13T10:51:25.591Z,37.20
2018-07-13T10:53:52.525Z,37.30
2018-07-13T10:56:19.469Z,38.20
2018-07-13T10:58:46.397Z,38.30
2018-07-13T11:01:13.344Z,38.80
2018-07-13T11:03:40.304Z,39.00
2018-07-13T11:06:07.628Z,39.50
2018-07-13T11:08:34.606Z,39.00
2018-07-13T11:11:01.625Z,39.80
2018-07-13T11:13:28.542Z,40.00
2018-07-13T11:15:55.756Z,40.00
2018-07-13T11:18:22.723Z,40.40
2018-07-13T11:20:49.706Z,40.50
2018-07-13T11:23:16.662Z,40.70
2018-07-13T11:25:43.589Z,41.10
2018-07-13T11:28:10.554Z,41.10
2018-07-13T11:30:37.500Z,41.50
2018-07-13T11:33:04.845Z,41.60
2018-07-13T11:35:31.844Z,41.80
2018-07-13T11:38:00.086Z,41.60
2018-07-13T11:40:27.069Z,41.70
2018-07-13T11:42:54.052Z,40.80
2018-07-13T11:45:21.035Z,41.00
2018-07-13T11:47:47.980Z,40.40
2018-07-13T11:52:41.800Z,40.80
2018-07-13T11:55:08.772Z,40.30
2018-07-13T11:57:35.745Z,38.90
2018-07-13T12:00:02.746Z,38.80
2018-07-13T12:02:29.701Z,38.60
2018-07-13T12:04:56.714Z,38.70
2018-07-13T12:07:23.713Z,37.60
2018-07-13T12:09:50.926Z,37.70
2018-07-13T12:12:18.026Z,37.50
2018-07-13T12:14:45.074Z,38.30
2018-07-13T12:17:12.646Z,39.00
2018-07-13T12:22:13.613Z,38.80
2018-07-13T12:24:40.715Z,38.60
2018-07-13T12:27:07.846Z,39.10
2018-07-13T12:29:35.841Z,38.80
2018-07-13T12:32:02.890Z,38.00
2018-07-13T12:34:30.212Z,37.20
2018-07-13T12:36:57.241Z,37.10
2018-07-13T12:39:24.338Z,36.20
2018-07-13T12:41:51.330Z,36.90
2018-07-13T12:44:18.321Z,35.80
2018-07-13T12:46:45.454Z,36.00
2018-07-13T12:49:13.279Z,35.90
2018-07-13T12:51:41.002Z,34.10
2018-07-13T12:54:08.114Z,35.80
2018-07-13T12:56:35.088Z,35.00
2018-07-13T12:59:02.104Z,34.10
2018-07-13T13:01:29.144Z,34.40
2018-07-13T13:03:56.228Z,35.20
2018-07-13T13:06:23.259Z,34.80
2018-07-13T13:08:50.293Z,35.80
2018-07-13T13:11:17.345Z,35.40
2018-07-13T13:13:44.301Z,34.90
2018-07-13T13:16:12.512Z,34.90
2018-07-13T13:18:40.083Z,34.70
2018-07-13T13:21:07.026Z,34.80
2018-07-13T13:23:33.993Z,34.50
2018-07-13T13:26:01.107Z,35.70
2018-07-13T13:28:28.688Z,35.00
2018-07-13T13:30:56.570Z,34.00
2018-07-13T13:33:24.066Z,34.40
2018-07-13T13:35:51.008Z,35.20
2018-07-13T13:38:19.356Z,34.80
2018-07-13T13:40:46.597Z,34.20
2018-07-13T13:43:14.286Z,35.60
2018-07-13T13:45:41.297Z,35.20
2018-07-13T13:48:08.280Z,35.60
2018-07-13T13:50:35.293Z,35.40
2018-07-13T13:53:02.184Z,35.50
2018-07-13T13:55:29.128Z,34.80
2018-07-13T13:57:56.159Z,34.40
2018-07-13T14:00:23.176Z,33.60
2018-07-13T14:02:50.132Z,33.90
2018-07-13T14:05:17.112Z,34.60
2018-07-13T14:07:45.241Z,34.80
2018-07-13T14:10:12.280Z,34.20
2018-07-13T14:12:40.345Z,34.60
2018-07-13T14:28:56.435Z,35.40
2018-07-13T14:31:23.386Z,35.60
2018-07-13T14:33:50.466Z,35.30
2018-07-13T14:36:17.447Z,35.70
2018-07-13T14:38:44.639Z,36.40
2018-07-13T14:41:11.604Z,35.20
2018-07-13T14:43:38.565Z,35.30
2018-07-13T14:46:05.492Z,34.50
2018-07-13T14:48:32.550Z,32.70
2018-07-13T14:50:59.557Z,33.40
2018-07-13T14:53:26.520Z,32.50
2018-07-13T14:55:54.344Z,33.60
2018-07-13T14:58:21.288Z,32.30
2018-07-13T15:00:48.593Z,33.30
2018-07-13T15:03:15.516Z,33.60
2018-07-13T15:05:43.196Z,34.40
2018-07-13T15:08:10.085Z,34.80
2018-07-13T15:10:37.120Z,34.70
2018-07-13T15:13:04.319Z,35.40
2018-07-13T15:15:31.890Z,35.70
2018-07-13T15:17:58.892Z,35.10
2018-07-13T15:20:25.837Z,35.90
2018-07-13T15:22:52.776Z,35.90
2018-07-13T15:25:20.746Z,36.50
2018-07-13T15:27:47.665Z,36.30
2018-07-13T15:30:14.604Z,36.40
2018-07-13T15:32:41.600Z,36.70
2018-07-13T15:35:08.712Z,36.30
2018-07-13T15:37:35.698Z,36.00
2018-07-13T15:40:02.673Z,36.90
2018-07-13T15:42:30.206Z,36.30
2018-07-13T15:44:57.154Z,36.40
2018-07-13T15:47:24.097Z,36.20
2018-07-13T15:49:51.140Z,36.00
2018-07-13T15:52:18.059Z,36.10
2018-07-13T15:54:45.002Z,35.90
2018-07-13T15:57:12.598Z,35.90
2018-07-13T15:59:39.649Z,35.90
2018-07-13T16:02:07.180Z,35.90
2018-07-13T16:07:01.501Z,36.20
2018-07-13T16:09:28.464Z,36.40
2018-07-13T16:11:55.558Z,36.90
2018-07-13T16:14:22.513Z,36.70
2018-07-13T16:16:49.468Z,36.60
2018-07-13T16:19:16.436Z,37.20
2018-07-13T16:21:43.988Z,36.90
2018-07-13T16:24:10.934Z,36.10
2018-07-13T16:26:37.879Z,36.00
2018-07-13T16:29:04.832Z,36.80
2018-07-13T16:31:32.140Z,35.60
2018-07-13T16:33:59.546Z,36.00
2018-07-13T16:36:26.481Z,36.60
2018-07-13T16:38:53.401Z,36.10
2018-07-13T16:41:20.378Z,36.70
2018-07-13T16:43:47.330Z,36.70
2018-07-13T16:46:14.501Z,36.10
2018-07-13T16:48:41.516Z,36.40
2018-07-13T16:51:08.472Z,35.80
2018-07-13T16:53:35.445Z,36.30
2018-07-13T16:56:02.532Z,36.20
2018-07-13T16:58:29.564Z,36.90
2018-07-13T17:00:56.958Z,37.00
2018-07-13T17:03:23.915Z,36.50
2018-07-13T17:05:50.858Z,36.70
2018-07-13T17:08:18.842Z,36.80
2018-07-13T17:10:45.774Z,36.50
2018-07-13T17:13:12.766Z,36.20
2018-07-13T17:15:40.244Z,36.20
2018-07-13T17:18:07.313Z,36.20
2018-07-13T17:20:34.810Z,36.30
2018-07-13T17:23:01.580Z,36.50
2018-07-13T17:25:28.532Z,36.80
2018-07-13T17:27:55.473Z,37.20
2018-07-13T17:30:22.484Z,37.30
2018-07-13T17:32:50.077Z,37.10
2018-07-13T17:35:17.356Z,38.10
2018-07-13T17:37:44.393Z,37.30
2018-07-13T17:40:11.333Z,37.10
2018-07-13T17:42:38.291Z,37.40
2018-07-13T17:45:05.306Z,37.60
2018-07-13T17:49:59.252Z,38.60
2018-07-13T17:52:26.293Z,38.40
2018-07-13T17:54:53.346Z,38.20
2018-07-13T17:57:20.343Z,38.40
2018-07-13T17:59:47.281Z,38.10
2018-07-13T18:02:14.254Z,38.20
2018-07-13T18:04:41.205Z,38.70
2018-07-13T18:07:08.540Z,38.90
2018-07-13T18:09:36.358Z,39.50
2018-07-13T18:12:04.539Z,39.30
2018-07-13T18:14:31.993Z,39.70
2018-07-13T18:16:58.921Z,39.60
2018-07-13T18:19:26.375Z,39.70
2018-07-13T18:21:53.972Z,39.50
2018-07-13T18:24:21.605Z,39.90
2018-07-13T18:26:49.506Z,41.30
2018-07-13T18:29:17.449Z,41.90
2018-07-13T18:31:44.982Z,42.60
2018-07-13T18:34:11.945Z,43.00
2018-07-13T18:36:39.412Z,43.20
2018-07-13T18:39:08.144Z,43.50
2018-07-13T18:41:35.746Z,43.60
2018-07-13T18:44:03.598Z,43.10
2018-07-13T18:46:30.544Z,44.10
2018-07-13T18:48:57.571Z,44.50
2018-07-13T18:51:25.253Z,45.10
2018-07-13T18:53:52.196Z,44.70
2018-07-13T18:56:19.187Z,45.40
2018-07-13T18:58:46.549Z,45.40
2018-07-13T19:01:13.481Z,45.80
2018-07-13T19:03:41.136Z,45.60
2018-07-13T19:06:08.090Z,45.90
2018-07-13T19:08:35.119Z,45.50
2018-07-13T19:11:03.021Z,45.70
2018-07-13T19:13:30.041Z,45.70
2018-07-13T19:15:56.985Z,45.70
2018-07-13T19:18:24.482Z,45.80
2018-07-13T19:20:51.525Z,46.90
2018-07-13T19:23:18.509Z,47.00
2018-07-13T19:25:45.658Z,46.70
2018-07-13T19:28:12.684Z,46.80
2018-07-13T19:30:39.888Z,47.10
2018-07-13T19:33:06.790Z,46.80
2018-07-13T19:35:34.761Z,46.50
2018-07-13T19:38:01.811Z,48.00
2018-07-13T19:40:29.788Z,47.60
2018-07-13T19:42:57.349Z,47.70
2018-07-13T19:45:24.306Z,48.30
2018-07-13T19:47:51.520Z,47.90
2018-07-13T19:50:18.926Z,48.70
2018-07-13T19:52:46.522Z,48.50
2018-07-13T19:55:13.497Z,49.10
2018-07-13T19:57:40.532Z,48.60
2018-07-13T20:00:07.545Z,49.40
2018-07-13T20:02:34.534Z,49.90
2018-07-13T20:05:01.470Z,49.70
2018-07-13T20:07:28.957Z,49.90
2018-07-13T20:09:55.928Z,50.60
2018-07-13T20:12:24.295Z,50.10
2018-07-13T20:14:52.136Z,50.00
2018-07-13T20:17:19.242Z,50.20
2018-07-13T20:19:46.137Z,50.90
2018-07-13T20:22:13.217Z,50.80
2018-07-13T20:24:40.202Z,50.20
2018-07-13T20:27:07.176Z,50.50
2018-07-13T20:29:34.190Z,50.20
2018-07-13T20:32:01.544Z,51.20
2018-07-13T20:34:28.524Z,52.00
2018-07-13T20:36:55.541Z,51.80
2018-07-13T20:39:23.241Z,51.40
2018-07-13T20:41:50.265Z,52.40
2018-07-13T20:44:17.210Z,51.70
2018-07-13T20:46:44.849Z,52.10
2018-07-13T20:49:11.837Z,51.80
2018-07-13T20:51:39.912Z,51.90
2018-07-13T20:54:07.577Z,53.00
2018-07-13T20:56:34.557Z,52.40
2018-07-13T20:59:01.601Z,52.70
2018-07-13T21:01:28.599Z,52.80
2018-07-13T21:03:55.798Z,53.20
2018-07-13T21:06:24.257Z,53.40
2018-07-13T21:08:51.219Z,53.00
2018-07-13T21:11:18.166Z,53.90
2018-07-13T21:13:45.110Z,54.20
2018-07-13T21:16:12.096Z,54.30
2018-07-13T21:18:39.745Z,54.00
2018-07-13T21:21:06.769Z,53.60
2018-07-13T21:23:33.718Z,54.00
2018-07-13T21:26:00.723Z,54.70
2018-07-13T21:28:27.669Z,54.50
2018-07-13T21:30:54.675Z,54.40
2018-07-13T21:33:21.656Z,55.30
2018-07-13T21:35:48.823Z,55.20
2018-07-13T21:38:15.802Z,55.90
2018-07-13T21:40:42.911Z,55.90
2018-07-13T21:43:09.905Z,56.40
2018-07-13T21:45:36.838Z,56.10
2018-07-13T21:48:04.404Z,56.80
2018-07-13T21:50:31.420Z,57.10
2018-07-13T21:52:59.152Z,56.80
2018-07-13T21:55:27.366Z,57.30
2018-07-13T21:57:54.348Z,56.50
2018-07-13T22:00:21.471Z,56.90
2018-07-13T22:02:48.986Z,56.70
2018-07-13T22:05:16.579Z,57.40
2018-07-13T22:10:10.429Z,57.50
2018-07-13T22:12:37.383Z,57.70
2018-07-13T22:15:04.383Z,57.50
2018-07-13T22:17:31.428Z,57.90
2018-07-13T22:19:58.445Z,58.30
2018-07-13T22:22:25.398Z,57.80
2018-07-13T22:24:52.371Z,58.00
2018-07-13T22:27:19.304Z,57.90
2018-07-13T22:29:46.284Z,57.60
2018-07-13T22:32:14.451Z,57.90
2018-07-13T22:34:41.404Z,57.80
2018-07-13T22:37:08.393Z,58.00
2018-07-13T22:39:36.502Z,57.70
2018-07-13T22:42:04.214Z,58.30
2018-07-13T22:44:31.722Z,58.00
2018-07-13T22:46:58.695Z,58.20
2018-07-13T22:49:25.635Z,58.30
2018-07-13T22:51:52.790Z,58.10
2018-07-13T22:54:20.260Z,58.30
2018-07-13T22:56:47.211Z,57.80
2018-07-13T22:59:14.829Z,58.90
2018-07-13T23:01:42.316Z,58.40
2018-07-13T23:04:09.533Z,58.70
2018-07-13T23:06:36.494Z,58.60
2018-07-13T23:09:03.863Z,58.60
2018-07-13T23:11:30.900Z,59.10
2018-07-13T23:13:58.824Z,59.20
2018-07-13T23:16:25.798Z,59.10
2018-07-13T23:18:52.769Z,59.10
2018-07-13T23:21:19.700Z,59.30
2018-07-13T23:23:47.277Z,59.20
2018-07-13T23:26:14.238Z,59.20
2018-07-13T23:28:41.200Z,59.10
2018-07-13T23:31:08.230Z,59.60
2018-07-13T23:36:02.942Z,60.20
2018-07-13T23:38:30.504Z,59.70
2018-07-13T23:40:58.419Z,59.70
2018-07-13T23:43:25.373Z,59.70
2018-07-13T23:45:52.312Z,59.90
2018-07-13T23:48:19.273Z,60.80
2018-07-13T23:50:46.211Z,60.50
2018-07-13T23:53:13.856Z,61.30
2018-07-13T23:55:40.889Z,60.50
2018-07-13T23:58:07.873Z,60.70
